Airport View

Enter AWOS ICAO identifier for current METAR.

ex. KFNL

PAIK 080556Z AUTO 00000KT 10SM CLR 14/13 A2952 RMK AO2 SLP998 60018 T01440128 10161 20128 53007

8 Aug 2020 06:43

Frequency: 119.025

Phone: 907-475-2004

Other Area AWOS: PFNO - PASK - PAOT - PAFM

TAF PAOT 080538Z 0806/0906 28012KT P6SM OVC004 FM080800 28006KT P6SM OVC004 FM082100 28006KT P6SM OVC007